Time;durP1;ratioP1;P1;durP2;ratioP2;P2;SDS_P1;SDS_P2;PMS_P1;PMS_P2;Temp;Humidity;BMP_temperature;BMP_pressure;BME280_temperature;BME280_humidity;BME280_pressure;Samples;Min_cycle;Max_cycle;Signal;HPM_P1;HPM_P2
2021/03/16 00:03:42;;;;;;;65.70;36.88;;;;;;;2.66;85.31;99095.04;254515;1104;114678;-65
2021/03/16 00:08:47;;;;;;;63.50;33.95;;;;;;;2.63;85.75;99097.25;252761;1105;116309;-65
2021/03/16 00:13:51;;;;;;;71.47;34.70;;;;;;;2.67;85.14;99103.74;254678;1105;115909;-65
2021/03/16 00:18:55;;;;;;;75.55;36.90;;;;;;;2.67;84.34;99099.29;254925;1104;115962;-65
2021/03/16 00:23:57;;;;;;;72.70;36.00;;;;;;;2.64;84.40;99093.61;254545;1105;118037;-66
2021/03/16 00:29:00;;;;;;;70.87;31.12;;;;;;;2.57;84.76;99095.41;253033;1105;116488;-65
2021/03/16 00:34:03;;;;;;;76.85;39.27;;;;;;;2.57;84.71;99092.78;253761;1105;116111;-65
2021/03/16 00:39:07;;;;;;;76.55;37.48;;;;;;;2.53;85.93;99091.55;254340;1104;115795;-65
2021/03/16 00:44:10;;;;;;;68.60;36.42;;;;;;;2.58;86.25;99095.21;253790;1105;116479;-65
2021/03/16 00:49:14;;;;;;;58.80;29.00;;;;;;;2.47;85.58;99108.13;252987;1105;115936;-65
2021/03/16 00:54:17;;;;;;;68.92;33.95;;;;;;;2.39;87.17;99109.13;252604;1105;117252;-65
2021/03/16 00:59:21;;;;;;;72.92;39.92;;;;;;;2.45;86.72;99112.77;252334;1105;116557;-65
2021/03/16 01:04:23;;;;;;;62.87;32.93;;;;;;;2.54;87.03;99111.59;254255;1105;115166;-65
2021/03/16 01:09:27;;;;;;;48.42;27.45;;;;;;;2.42;86.94;99100.03;252751;1105;115925;-65
2021/03/16 01:14:31;;;;;;;43.28;25.37;;;;;;;2.41;86.99;99103.67;251650;1105;115389;-65
2021/03/16 01:19:36;;;;;;;80.72;37.90;;;;;;;2.43;86.37;99104.29;252507;1105;115752;-65
2021/03/16 01:24:40;;;;;;;63.05;34.08;;;;;;;2.40;86.80;99105.49;253232;1105;116049;-66
2021/03/16 01:29:44;;;;;;;65.87;34.73;;;;;;;2.39;87.91;99108.31;252926;1105;116033;-65
2021/03/16 01:34:47;;;;;;;61.33;32.55;;;;;;;2.42;87.04;99114.00;251661;1105;115741;-65
2021/03/16 01:39:50;;;;;;;64.97;36.15;;;;;;;2.44;87.18;99105.91;252699;1105;117745;-65
2021/03/16 01:44:53;;;;;;;56.33;33.18;;;;;;;2.39;87.60;99103.88;252190;1105;140393;-64
2021/03/16 01:49:57;;;;;;;55.05;33.92;;;;;;;2.35;87.55;99100.82;252628;1105;115693;-65
2021/03/16 01:55:02;;;;;;;71.12;37.45;;;;;;;2.40;86.63;99102.86;252626;1105;115440;-65
2021/03/16 02:00:07;;;;;;;66.20;37.05;;;;;;;2.47;87.18;99103.67;252507;1105;115464;-65
2021/03/16 02:05:13;;;;;;;58.50;33.70;;;;;;;2.41;87.15;99093.97;253819;1105;115905;-65
2021/03/16 02:10:38;;;;;;;59.55;33.55;;;;;;;2.29;86.77;99101.60;253436;1105;114965;-66
2021/03/16 02:15:47;;;;;;;61.50;29.85;;;;;;;2.14;85.78;99108.80;254843;1104;115491;-65
2021/03/16 02:21:12;;;;;;;64.58;35.68;;;;;;;2.12;87.06;99110.84;254764;1104;115112;-65
2021/03/16 02:26:28;;;;;;;55.28;35.00;;;;;;;2.18;86.53;99111.86;254718;1105;114946;-65
2021/03/16 02:31:33;;;;;;;70.93;38.67;;;;;;;2.21;86.14;99120.17;254567;1105;115758;-65
2021/03/16 02:36:40;;;;;;;62.83;37.27;;;;;;;2.22;86.68;99119.16;254272;1105;115226;-65
2021/03/16 02:41:48;;;;;;;61.35;36.55;;;;;;;2.22;87.07;99119.16;254419;1105;114960;-65
2021/03/16 02:46:53;;;;;;;59.50;38.48;;;;;;;2.19;86.59;99127.44;252911;1105;114905;-65
2021/03/16 02:51:57;;;;;;;62.45;35.30;;;;;;;2.26;86.44;99128.29;253315;1105;115913;-65
2021/03/16 02:57:02;;;;;;;57.10;35.45;;;;;;;2.21;86.60;99135.95;253976;1105;114888;-65
2021/03/16 03:02:09;;;;;;;56.73;32.20;;;;;;;2.15;86.74;99136.72;253102;1105;115378;-66
2021/03/16 03:07:14;;;;;;;60.78;40.80;;;;;;;2.18;86.81;99141.59;253128;1105;115542;-65
2021/03/16 03:12:17;;;;;;;56.10;33.42;;;;;;;2.22;86.72;99137.57;253233;1104;118674;-64
2021/03/16 03:17:20;;;;;;;60.78;36.20;;;;;;;2.20;86.49;99144.84;251550;1105;116914;-64
2021/03/16 03:22:30;;;;;;;62.83;37.58;;;;;;;2.17;86.25;99134.71;251784;1104;115488;-64
2021/03/16 03:27:39;;;;;;;67.60;37.95;;;;;;;2.18;86.03;99135.52;253354;1105;115715;-65
2021/03/16 03:32:43;;;;;;;56.53;34.33;;;;;;;2.19;87.22;99135.33;253046;1105;114641;-65
2021/03/16 03:37:48;;;;;;;59.75;35.95;;;;;;;2.22;85.92;99140.20;252541;1104;116347;-65
2021/03/16 03:42:58;;;;;;;55.17;34.05;;;;;;;2.11;86.62;99151.29;252446;1105;115288;-65
2021/03/16 03:48:05;;;;;;;60.00;35.00;;;;;;;2.15;86.55;99141.98;252479;1105;114958;-65
2021/03/16 03:53:10;;;;;;;54.73;34.23;;;;;;;2.14;87.20;99153.50;253324;1104;115391;-65
2021/03/16 03:58:16;;;;;;;58.10;35.43;;;;;;;2.06;86.09;99150.24;254151;1104;114751;-65
2021/03/16 04:03:20;;;;;;;60.55;34.78;;;;;;;2.01;86.45;99150.82;253640;1104;115715;-65
2021/03/16 04:08:25;;;;;;;70.67;41.73;;;;;;;2.07;86.02;99150.05;253466;1104;114705;-66
2021/03/16 04:13:29;;;;;;;58.33;37.93;;;;;;;1.92;85.80;99152.78;253771;1105;114806;-66
2021/03/16 04:18:33;;;;;;;74.55;41.48;;;;;;;1.75;86.18;99158.55;254514;1105;115109;-66
2021/03/16 04:23:37;;;;;;;64.35;37.55;;;;;;;1.63;85.73;99153.81;254790;1105;115262;-65
2021/03/16 04:28:41;;;;;;;74.65;41.37;;;;;;;1.58;84.50;99160.63;254936;1104;114949;-65
2021/03/16 04:33:45;;;;;;;65.62;39.65;;;;;;;1.54;83.73;99170.70;254906;1104;115325;-65
2021/03/16 04:38:49;;;;;;;66.17;43.78;;;;;;;1.43;84.32;99173.87;255114;1105;116167;-65
2021/03/16 04:43:52;;;;;;;63.80;38.38;;;;;;;1.40;84.55;99184.75;254619;1105;114899;-64
2021/03/16 04:48:56;;;;;;;69.37;42.53;;;;;;;1.30;83.72;99184.24;255099;1105;117341;-65
2021/03/16 04:54:00;;;;;;;77.78;39.30;;;;;;;1.11;82.65;99187.51;253830;1105;115072;-65
2021/03/16 04:59:03;;;;;;;66.62;34.73;;;;;;;0.91;83.73;99198.63;254775;1105;115426;-65
2021/03/16 05:04:06;;;;;;;61.37;33.30;;;;;;;0.75;83.00;99201.46;253233;1105;117582;-65
2021/03/16 05:09:08;;;;;;;68.47;40.80;;;;;;;0.64;84.10;99205.36;252720;1105;117122;-64
2021/03/16 05:14:11;;;;;;;59.15;37.55;;;;;;;0.55;83.81;99200.42;253336;1105;115827;-65
2021/03/16 05:19:15;;;;;;;65.47;36.45;;;;;;;0.55;84.70;99200.42;254419;1105;116500;-65
2021/03/16 05:24:19;;;;;;;79.22;39.18;;;;;;;0.48;83.62;99208.20;254723;1104;115724;-65
2021/03/16 05:29:22;;;;;;;58.58;35.68;;;;;;;0.50;84.45;99215.89;254053;1105;116392;-65
2021/03/16 05:34:27;;;;;;;52.67;31.68;;;;;;;0.51;84.14;99217.52;253769;1104;114807;-64
2021/03/16 05:39:30;;;;;;;57.30;37.00;;;;;;;0.46;85.37;99225.11;252659;1104;115566;-66
2021/03/16 05:44:37;;;;;;;82.30;41.63;;;;;;;0.55;84.42;99224.84;254329;1105;118041;-64
2021/03/16 05:49:42;;;;;;;68.40;36.23;;;;;;;0.58;85.45;99224.48;254909;1105;116286;-67
2021/03/16 05:54:45;;;;;;;64.07;37.75;;;;;;;0.54;84.72;99233.70;253058;1105;117629;-66
2021/03/16 05:59:49;;;;;;;70.87;39.53;;;;;;;0.59;84.44;99227.92;252065;1105;116081;-65
2021/03/16 06:04:53;;;;;;;68.02;35.75;;;;;;;0.72;84.09;99237.73;253829;1105;115070;-66
2021/03/16 06:09:57;;;;;;;66.60;40.20;;;;;;;0.88;82.74;99246.23;254476;1104;115366;-64
2021/03/16 06:15:18;;;;;;;70.60;41.15;;;;;;;1.09;82.92;99255.13;254977;1104;115359;-65
2021/03/16 06:20:32;;;;;;;68.30;37.70;;;;;;;1.39;83.34;99248.77;254471;1105;115305;-65
2021/03/16 06:25:41;;;;;;;67.20;40.12;;;;;;;1.69;81.84;99262.59;254430;1104;115875;-65
2021/03/16 06:30:49;;;;;;;61.75;33.35;;;;;;;1.83;82.27;99264.34;255038;1104;115199;-64
2021/03/16 06:35:56;;;;;;;63.23;36.77;;;;;;;1.98;81.85;99265.05;254659;1105;115313;-64
2021/03/16 06:41:15;;;;;;;90.12;50.35;;;;;;;2.34;82.24;99272.78;254732;1105;116704;-64
2021/03/16 06:46:29;;;;;;;74.22;44.30;;;;;;;2.62;82.09;99278.00;254776;1104;116160;-63
2021/03/16 06:51:32;;;;;;;82.70;47.40;;;;;;;2.87;82.17;99283.58;254949;1104;115927;-62
2021/03/16 06:56:36;;;;;;;84.40;49.98;;;;;;;3.08;82.65;99281.83;255058;1105;116597;-63
2021/03/16 07:01:39;;;;;;;86.65;48.23;;;;;;;3.32;81.24;99276.05;254380;1104;115839;-64
2021/03/16 07:06:43;;;;;;;82.57;51.33;;;;;;;3.73;81.37;99289.88;254641;1105;116915;-64
2021/03/16 07:11:51;;;;;;;70.60;43.15;;;;;;;4.23;80.55;99295.59;254665;1104;115171;-65
2021/03/16 07:16:56;;;;;;;68.10;43.23;;;;;;;4.71;79.22;99296.09;254979;1104;116843;-66
2021/03/16 07:22:02;;;;;;;72.55;46.08;;;;;;;5.36;77.80;99294.21;254590;1105;117562;-65
2021/03/16 07:27:06;;;;;;;70.20;44.67;;;;;;;5.55;76.22;99304.88;254807;1105;117063;-65
2021/03/16 07:32:12;;;;;;;60.92;40.83;;;;;;;5.44;76.05;99309.02;254245;1104;115635;-69
2021/03/16 07:37:15;;;;;;;81.53;49.20;;;;;;;5.33;75.84;99323.70;254831;1105;116124;-63
2021/03/16 07:42:17;;;;;;;70.42;41.02;;;;;;;5.36;76.17;99311.90;254896;1103;115709;-63
2021/03/16 07:47:32;;;;;;;55.40;36.63;;;;;;;5.43;75.16;99327.73;252415;1105;116404;-65
2021/03/16 07:52:45;;;;;;;55.95;34.15;;;;;;;5.59;75.05;99337.80;252322;1105;115685;-64
2021/03/16 07:57:48;;;;;;;59.20;35.80;;;;;;;5.96;75.07;99338.83;252130;1105;116329;-63
2021/03/16 08:02:57;;;;;;;61.37;38.57;;;;;;;6.64;74.89;99336.22;253426;1105;138011;-64
2021/03/16 08:08:15;;;;;;;62.53;37.10;;;;;;;7.07;70.99;99336.15;251936;1105;116704;-65
2021/03/16 08:13:18;;;;;;;;;;;;;;;7.20;70.48;99341.31;251296;1105;116173;-64
2021/03/16 08:18:30;;;;;;;50.48;28.95;;;;;;;7.20;71.56;99356.41;254074;1105;104149;-65
2021/03/16 08:23:33;;;;;;;43.90;28.38;;;;;;;6.78;71.56;99356.23;252934;1105;117033;-65
2021/03/16 08:28:36;;;;;;;52.25;35.03;;;;;;;6.58;71.39;99360.92;252989;1105;117105;-65
2021/03/16 08:33:51;;;;;;;51.88;30.02;;;;;;;6.36;73.45;99365.80;255066;1104;117354;-65
2021/03/16 08:38:54;;;;;;;36.75;22.65;;;;;;;6.15;72.90;99368.80;254158;1105;116580;-65
2021/03/16 08:43:57;;;;;;;50.23;29.18;;;;;;;6.05;72.90;99374.59;254650;1104;117427;-65
2021/03/16 08:49:01;;;;;;;50.92;31.23;;;;;;;6.06;74.22;99376.21;254760;1105;117030;-67
2021/03/16 08:54:08;;;;;;;50.75;31.73;;;;;;;6.37;73.72;99375.37;254623;1104;117277;-67
2021/03/16 08:59:13;;;;;;;50.70;32.80;;;;;;;6.51;73.60;99381.34;254795;1105;116406;-67
2021/03/16 09:04:27;;;;;;;53.73;28.40;;;;;;;6.52;71.75;99388.27;254689;1104;116872;-66
2021/03/16 09:09:31;;;;;;;64.82;37.67;;;;;;;6.71;73.26;99387.30;254704;1104;116696;-66
2021/03/16 09:14:34;;;;;;;58.13;34.90;;;;;;;6.85;71.95;99393.27;252559;1104;117043;-67
2021/03/16 09:19:38;;;;;;;51.23;31.17;;;;;;;6.85;72.49;99396.72;254423;1104;116508;-67
2021/03/16 09:24:45;;;;;;;48.87;30.35;;;;;;;6.69;71.53;99394.66;254555;1105;117603;-64
2021/03/16 09:29:50;;;;;;;50.07;31.63;;;;;;;6.88;71.26;99398.94;251878;1105;116099;-66
2021/03/16 09:34:54;;;;;;;42.87;25.93;;;;;;;6.93;70.02;99392.99;251563;1105;115262;-66
2021/03/16 09:40:00;;;;;;;31.48;20.77;;;;;;;6.99;69.78;99398.23;253981;1105;116071;-67
2021/03/16 09:45:05;;;;;;;;;;;;;;;7.15;70.45;99409.27;252249;1104;117354;-66
2021/03/16 09:50:23;;;;;;;48.30;27.37;;;;;;;7.20;70.30;99409.42;254069;1104;104190;-68
2021/03/16 09:55:27;;;;;;;46.63;28.87;;;;;;;7.15;71.08;99411.92;252255;1105;116613;-68
2021/03/16 10:00:30;;;;;;;41.08;26.02;;;;;;;7.10;69.78;99416.03;252682;1105;117871;-67
2021/03/16 10:05:33;;;;;;;40.95;27.02;;;;;;;7.20;69.38;99420.84;251277;1105;115858;-68
2021/03/16 10:10:38;;;;;;;41.18;25.37;;;;;;;7.24;68.43;99421.20;253230;1104;115423;-67
2021/03/16 10:15:44;;;;;;;39.45;25.15;;;;;;;7.12;70.40;99422.95;252930;1105;115882;-67
2021/03/16 10:20:51;;;;;;;42.90;26.17;;;;;;;7.01;69.19;99430.63;253327;1105;119047;-68
2021/03/16 10:25:59;;;;;;;43.30;28.98;;;;;;;7.17;68.62;99428.41;253830;1104;115932;-69
2021/03/16 10:31:31;;;;;;;43.40;28.15;;;;;;;7.38;69.48;99433.27;253064;1104;115865;-69
2021/03/16 10:36:35;;;;;;;30.07;19.00;;;;;;;7.21;65.77;99432.25;251998;1104;116102;-67
2021/03/16 10:41:38;;;;;;;43.08;25.60;;;;;;;7.50;67.04;99431.52;253621;1105;115919;-67
2021/03/16 10:46:41;;;;;;;32.93;22.27;;;;;;;7.72;66.01;99426.55;252633;1104;116064;-66
2021/03/16 10:51:44;;;;;;;25.60;17.53;;;;;;;7.85;63.60;99436.19;254518;1105;115203;-68
2021/03/16 10:56:47;;;;;;;35.17;20.50;;;;;;;7.80;64.48;99430.74;254772;1105;115886;-70
2021/03/16 11:01:51;;;;;;;37.67;24.43;;;;;;;7.93;65.50;99433.23;254796;1104;115845;-67
2021/03/16 11:06:55;;;;;;;34.73;23.05;;;;;;;7.95;62.69;99434.60;254806;1104;138544;-66
2021/03/16 11:11:57;;;;;;;36.00;18.25;;;;;;;7.68;64.05;99438.63;254700;1104;115945;-66
2021/03/16 11:17:00;;;;;;;37.08;23.62;;;;;;;7.62;64.94;99435.05;253537;1105;115559;-66
2021/03/16 11:22:04;;;;;;;34.63;23.12;;;;;;;7.80;64.03;99436.86;251943;1105;116125;-70
2021/03/16 11:27:06;;;;;;;31.97;19.48;;;;;;;7.81;62.86;99438.48;252493;1105;114981;-70
2021/03/16 11:32:10;;;;;;;31.77;19.90;;;;;;;8.02;65.26;99434.52;251286;1105;119011;-69
2021/03/16 11:37:13;;;;;;;35.05;21.90;;;;;;;7.86;63.95;99440.47;251259;1105;116109;-69
2021/03/16 11:42:17;;;;;;;32.10;22.93;;;;;;;7.99;64.45;99438.42;251632;1105;115177;-69
2021/03/16 11:47:20;;;;;;;31.37;21.97;;;;;;;8.09;61.89;99432.59;251712;1104;116696;-70
2021/03/16 11:52:24;;;;;;;33.67;19.80;;;;;;;8.37;62.35;99432.00;252823;1105;115211;-69
2021/03/16 11:57:27;;;;;;;16.23;12.53;;;;;;;8.24;59.80;99421.56;253628;1105;115281;-70
2021/03/16 12:02:29;;;;;;;24.47;15.55;;;;;;;8.09;60.69;99427.28;251318;1105;115093;-69
2021/03/16 12:07:33;;;;;;;24.00;15.83;;;;;;;8.07;61.16;99421.38;251503;1105;116258;-69
2021/03/16 12:12:36;;;;;;;27.25;18.77;;;;;;;8.16;62.00;99413.91;251242;1105;115292;-68
2021/03/16 12:17:40;;;;;;;29.82;18.48;;;;;;;8.43;60.86;99412.50;252511;1105;115944;-68
2021/03/16 12:22:44;;;;;;;25.12;15.45;;;;;;;8.44;58.41;99412.28;252088;1104;115484;-69
2021/03/16 12:27:46;;;;;;;22.55;15.18;;;;;;;8.59;59.39;99403.84;251657;1104;115720;-70
2021/03/16 12:32:50;;;;;;;21.50;14.05;;;;;;;8.64;56.84;99405.83;252985;1104;116385;-68
2021/03/16 12:37:53;;;;;;;17.48;11.63;;;;;;;8.48;57.65;99406.52;251046;1105;115673;-68
2021/03/16 12:42:55;;;;;;;14.63;9.68;;;;;;;8.30;55.44;99408.16;251845;1105;115422;-68
2021/03/16 12:47:58;;;;;;;15.20;11.00;;;;;;;8.48;57.98;99409.98;251990;1105;116973;-68
2021/03/16 12:53:04;;;;;;;17.17;12.58;;;;;;;8.58;56.72;99412.05;252111;1105;115063;-68
2021/03/16 12:58:10;;;;;;;18.48;11.95;;;;;;;8.98;55.70;99423.63;251556;1105;116404;-70
2021/03/16 13:03:13;;;;;;;11.35;7.75;;;;;;;8.84;54.77;99418.80;251109;1105;114902;-69
2021/03/16 13:08:17;;;;;;;19.25;12.05;;;;;;;8.91;57.64;99422.93;254902;1104;115131;-68
2021/03/16 13:13:19;;;;;;;13.03;9.20;;;;;;;8.88;55.05;99418.07;254221;1104;115797;-68
2021/03/16 13:18:22;;;;;;;15.78;11.12;;;;;;;8.94;54.24;99422.47;254767;1105;115341;-67
2021/03/16 13:23:25;;;;;;;9.20;6.20;;;;;;;8.99;54.70;99427.91;254819;1104;115332;-67
2021/03/16 13:28:27;;;;;;;12.43;8.50;;;;;;;9.08;51.50;99429.19;254437;1105;115103;-67
2021/03/16 13:33:30;;;;;;;11.93;8.33;;;;;;;9.09;52.20;99427.33;254711;1104;115696;-68
2021/03/16 13:38:33;;;;;;;10.85;8.70;;;;;;;8.96;52.75;99431.02;254733;1104;115653;-67
2021/03/16 13:43:35;;;;;;;13.72;10.65;;;;;;;8.73;52.59;99439.00;254420;1105;117482;-67
2021/03/16 13:48:38;;;;;;;16.35;10.55;;;;;;;8.52;53.00;99426.27;253524;1105;114717;-67
2021/03/16 13:53:41;;;;;;;7.20;6.05;;;;;;;8.65;49.91;99431.36;253201;1105;115925;-66
2021/03/16 13:58:45;;;;;;;11.80;8.78;;;;;;;8.64;51.82;99427.08;254255;1104;114591;-68
2021/03/16 14:03:49;;;;;;;16.60;10.63;;;;;;;8.68;51.94;99434.37;251516;1105;115142;-67
2021/03/16 14:08:53;;;;;;;12.37;8.80;;;;;;;8.52;52.15;99439.55;253837;1104;115591;-70
2021/03/16 14:13:57;;;;;;;13.10;9.35;;;;;;;8.52;51.54;99444.87;252958;1105;115297;-67
2021/03/16 14:19:01;;;;;;;9.18;7.90;;;;;;;8.38;51.01;99436.28;254878;1103;115244;-68
2021/03/16 14:24:04;;;;;;;7.50;5.50;;;;;;;8.09;52.74;99445.86;253904;1105;114467;-69
2021/03/16 14:29:07;;;;;;;15.00;9.73;;;;;;;8.09;54.33;99451.98;252961;1105;114864;-68
2021/03/16 14:34:11;;;;;;;13.53;10.50;;;;;;;8.13;55.11;99451.53;254897;1105;114985;-68
2021/03/16 14:39:16;;;;;;;20.30;11.75;;;;;;;7.94;55.97;99459.55;254659;1104;115900;-68
2021/03/16 14:44:20;;;;;;;11.85;7.60;;;;;;;7.44;56.37;99458.91;251351;1105;116931;-67
2021/03/16 14:49:23;;;;;;;15.18;9.55;;;;;;;7.40;55.89;99468.34;253159;1104;116091;-63
2021/03/16 14:54:28;;;;;;;11.95;7.10;;;;;;;7.44;55.13;99474.83;252227;1105;115729;-63
2021/03/16 14:59:31;;;;;;;12.15;9.53;;;;;;;7.47;55.66;99471.73;254945;1104;116856;-67
2021/03/16 15:04:34;;;;;;;13.72;9.50;;;;;;;7.15;57.44;99470.23;254594;1105;117420;-69
2021/03/16 15:09:37;;;;;;;12.95;9.08;;;;;;;6.97;58.72;99477.13;254554;1104;117313;-66
2021/03/16 15:14:41;;;;;;;16.30;11.18;;;;;;;7.04;59.35;99475.21;254706;1104;116515;-66
2021/03/16 15:19:45;;;;;;;16.27;11.45;;;;;;;6.90;58.87;99484.32;254868;1104;117251;-67
2021/03/16 15:24:48;;;;;;;16.30;13.08;;;;;;;6.93;60.42;99480.44;254437;1105;116541;-65
2021/03/16 15:29:50;;;;;;;16.55;11.68;;;;;;;6.90;59.83;99484.32;254809;1105;116551;-65
2021/03/16 15:34:53;;;;;;;40.23;23.90;;;;;;;6.93;60.01;99489.19;255031;1104;116849;-64
2021/03/16 15:39:58;;;;;;;12.15;9.58;;;;;;;6.84;60.19;99482.53;254993;1104;118345;-63
2021/03/16 15:45:04;;;;;;;20.10;14.87;;;;;;;6.87;61.28;99482.11;254163;1105;116455;-65
2021/03/16 15:50:09;;;;;;;16.62;11.53;;;;;;;6.73;61.29;99488.52;254826;1104;115986;-66
2021/03/16 15:55:13;;;;;;;16.32;12.25;;;;;;;6.53;63.76;99498.45;254906;1104;117888;-68
2021/03/16 16:00:17;;;;;;;11.95;8.13;;;;;;;6.18;64.88;99509.45;255002;1105;117530;-67
2021/03/16 16:05:20;;;;;;;11.00;8.75;;;;;;;6.07;64.98;99516.24;255161;1104;116025;-68
2021/03/16 16:10:31;;;;;;;17.15;11.97;;;;;;;5.94;66.41;99518.13;254218;1104;116974;-64
2021/03/16 16:15:35;;;;;;;11.10;9.05;;;;;;;5.71;67.19;99522.05;254702;1105;116325;-66
2021/03/16 16:20:39;;;;;;;17.82;12.37;;;;;;;5.62;67.83;99522.47;254001;1105;115754;-66
2021/03/16 16:25:42;;;;;;;21.45;15.10;;;;;;;5.61;67.39;99534.06;250811;1105;116528;-67
2021/03/16 16:30:45;;;;;;;27.98;16.48;;;;;;;5.55;66.83;99538.34;254708;1104;116443;-68
2021/03/16 16:35:48;;;;;;;23.15;13.15;;;;;;;5.47;66.91;99549.16;252376;1105;116678;-66
2021/03/16 16:40:55;;;;;;;13.53;10.45;;;;;;;5.30;66.18;99551.41;253029;1104;117644;-67
2021/03/16 16:46:02;;;;;;;14.93;10.78;;;;;;;5.19;65.85;99565.25;251516;1105;116521;-67
2021/03/16 16:51:05;;;;;;;12.47;9.13;;;;;;;5.05;66.73;99566.26;252683;1104;117202;-65
2021/03/16 16:56:09;;;;;;;13.60;11.55;;;;;;;4.91;67.60;99573.34;251058;1105;116270;-66
2021/03/16 17:01:13;;;;;;;17.57;11.47;;;;;;;4.76;67.79;99593.86;251196;1105;116494;-67
2021/03/16 17:06:17;;;;;;;14.73;11.90;;;;;;;4.63;68.58;99591.18;253536;1105;114692;-68
2021/03/16 17:11:20;;;;;;;15.98;12.82;;;;;;;4.48;69.72;99594.00;251015;1105;116889;-68
2021/03/16 17:16:23;;;;;;;13.83;11.95;;;;;;;4.43;69.89;99596.41;253991;1104;115621;-66
2021/03/16 17:21:26;;;;;;;17.80;13.18;;;;;;;4.35;72.27;99600.03;254853;1104;115313;-65
2021/03/16 17:26:30;;;;;;;14.50;11.38;;;;;;;4.26;71.29;99608.34;254911;1105;114737;-66
2021/03/16 17:31:34;;;;;;;21.75;14.00;;;;;;;4.12;73.07;99622.47;255075;1104;116047;-65
2021/03/16 17:36:38;;;;;;;19.82;13.58;;;;;;;3.97;73.91;99627.89;254838;1105;115993;-68
2021/03/16 17:41:46;;;;;;;14.80;12.60;;;;;;;3.75;74.70;99616.58;254245;1105;115469;-68
2021/03/16 17:46:51;;;;;;;18.77;14.13;;;;;;;3.71;73.18;99626.70;254200;1105;115607;-69
2021/03/16 17:51:54;;;;;;;20.08;14.43;;;;;;;3.67;72.85;99643.09;254825;1105;115248;-69
2021/03/16 17:56:57;;;;;;;17.85;12.45;;;;;;;3.56;73.44;99647.09;255140;1105;115364;-66
2021/03/16 18:02:00;;;;;;;22.22;14.53;;;;;;;3.45;74.72;99650.23;254537;1103;117057;-67
2021/03/16 18:07:03;;;;;;;18.87;15.72;;;;;;;3.34;75.77;99650.77;254709;1105;115596;-65
2021/03/16 18:12:11;;;;;;;23.00;16.12;;;;;;;3.25;75.07;99649.27;254866;1105;114870;-64
2021/03/16 18:17:14;;;;;;;27.98;17.85;;;;;;;3.25;76.67;99650.08;254826;1105;115450;-68
2021/03/16 18:22:20;;;;;;;29.63;16.90;;;;;;;3.28;76.50;99649.70;254471;1104;116503;-65
2021/03/16 18:27:24;;;;;;;;;;;;;;;3.32;75.15;99660.68;254353;1105;115633;-65
2021/03/16 18:32:26;;;;;;;21.93;13.50;;;;;;;3.32;76.68;99658.86;255463;1105;103024;-64
2021/03/16 18:37:30;;;;;;;26.52;14.75;;;;;;;3.33;75.53;99662.31;254579;1104;115717;-63
2021/03/16 18:42:35;;;;;;;47.27;30.70;;;;;;;3.38;77.10;99670.44;252667;1105;115910;-66
2021/03/16 18:47:39;;;;;;;47.50;30.85;;;;;;;3.50;76.94;99671.56;253864;1105;114635;-65
2021/03/16 18:52:42;;;;;;;37.85;26.95;;;;;;;3.56;76.87;99672.63;253606;1105;115682;-65
2021/03/16 18:57:45;;;;;;;52.05;33.60;;;;;;;3.56;75.67;99667.36;252067;1105;115160;-64
2021/03/16 19:02:48;;;;;;;52.75;31.37;;;;;;;3.53;76.34;99678.28;252886;1105;114711;-65
2021/03/16 19:07:52;;;;;;;51.95;34.27;;;;;;;3.51;77.66;99673.19;253692;1105;115409;-65
2021/03/16 19:12:57;;;;;;;38.00;22.87;;;;;;;3.48;76.63;99670.94;253036;1105;115002;-64
2021/03/16 19:17:59;;;;;;;35.90;20.55;;;;;;;3.51;76.21;99675.02;254671;1105;115420;-64
2021/03/16 19:23:03;;;;;;;30.88;21.23;;;;;;;3.58;76.35;99678.52;251732;1105;115469;-64
2021/03/16 19:28:06;;;;;;;30.23;20.50;;;;;;;3.60;76.57;99685.23;253730;1104;115495;-67
2021/03/16 19:33:09;;;;;;;35.95;21.07;;;;;;;3.59;76.20;99686.24;254570;1105;119254;-67
2021/03/16 19:38:12;;;;;;;29.32;20.52;;;;;;;3.61;76.55;99684.23;254752;1105;115215;-67
2021/03/16 19:43:18;;;;;;;36.98;20.35;;;;;;;3.61;76.55;99691.33;253355;1104;114870;-67
2021/03/16 19:48:21;;;;;;;34.80;22.48;;;;;;;3.63;75.93;99695.41;254669;1105;114624;-66
2021/03/16 19:53:23;;;;;;;28.32;17.48;;;;;;;3.69;75.03;99693.80;254853;1105;115103;-67
2021/03/16 19:58:26;;;;;;;27.63;18.37;;;;;;;3.70;75.01;99698.88;254571;1105;115104;-67
2021/03/16 20:03:29;;;;;;;19.12;11.73;;;;;;;3.61;74.30;99699.23;254752;1105;114876;-67
2021/03/16 20:08:32;;;;;;;21.60;15.48;;;;;;;3.56;74.62;99694.53;254718;1104;115221;-67
2021/03/16 20:13:40;;;;;;;26.95;18.17;;;;;;;3.63;75.26;99691.95;254968;1104;115354;-67
2021/03/16 20:18:43;;;;;;;26.15;16.50;;;;;;;3.67;75.10;99693.17;254682;1105;115301;-67
2021/03/16 20:23:46;;;;;;;22.95;14.38;;;;;;;3.64;76.42;99683.85;252451;1105;115507;-67
2021/03/16 20:28:51;;;;;;;25.30;16.63;;;;;;;3.58;76.54;99689.88;253238;1104;114752;-67
2021/03/16 20:33:53;;;;;;;23.00;16.27;;;;;;;3.52;75.94;99688.00;253212;1105;115475;-67
2021/03/16 20:38:59;;;;;;;22.30;13.80;;;;;;;3.44;77.64;99695.22;252084;1105;115144;-66
2021/03/16 20:44:02;;;;;;;32.60;18.42;;;;;;;3.45;76.76;99686.31;252478;1105;114836;-67
2021/03/16 20:49:06;;;;;;;25.45;15.80;;;;;;;3.49;78.08;99693.65;253241;1105;114942;-66
2021/03/16 20:54:09;;;;;;;27.77;16.62;;;;;;;3.52;77.17;99701.18;252598;1105;115627;-67
2021/03/16 20:59:12;;;;;;;28.50;15.75;;;;;;;3.52;77.37;99697.73;253071;1104;115508;-67
2021/03/16 21:04:15;;;;;;;21.93;13.68;;;;;;;3.49;77.91;99698.11;253204;1104;115034;-67
2021/03/16 21:09:18;;;;;;;35.70;20.20;;;;;;;3.51;78.25;99706.64;253827;1104;115249;-67
2021/03/16 21:14:25;;;;;;;34.30;17.23;;;;;;;3.55;77.85;99705.26;253379;1104;115183;-67
2021/03/16 21:19:28;;;;;;;35.73;18.65;;;;;;;3.55;78.41;99713.98;253043;1105;115409;-68
2021/03/16 21:24:31;;;;;;;27.27;14.95;;;;;;;3.51;77.32;99717.18;251868;1104;115725;-67
2021/03/16 21:29:36;;;;;;;29.70;14.58;;;;;;;3.38;78.45;99715.23;252864;1105;115700;-67
2021/03/16 21:34:39;;;;;;;31.70;20.00;;;;;;;3.38;78.53;99726.58;253725;1105;116004;-67
2021/03/16 21:39:42;;;;;;;31.37;15.98;;;;;;;3.44;78.26;99725.02;252586;1105;115516;-67
2021/03/16 21:44:46;;;;;;;42.83;17.12;;;;;;;3.42;78.44;99728.84;253622;1105;115202;-67
2021/03/16 21:49:50;;;;;;;29.35;17.10;;;;;;;3.38;78.28;99739.76;254061;1105;115780;-67
2021/03/16 21:54:54;;;;;;;30.23;16.20;;;;;;;3.31;77.79;99732.81;254843;1105;137147;-67
2021/03/16 21:59:58;;;;;;;26.50;15.93;;;;;;;3.27;77.25;99732.38;254933;1104;114968;-67
2021/03/16 22:05:04;;;;;;;25.88;14.60;;;;;;;3.24;77.06;99735.38;254552;1105;115493;-66
2021/03/16 22:10:11;;;;;;;29.42;14.93;;;;;;;3.18;78.95;99741.39;254072;1105;116100;-66
2021/03/16 22:15:14;;;;;;;;;;;;;;;3.08;77.98;99748.77;254898;1105;116610;-67
2021/03/16 22:20:18;;;;;;;24.80;15.80;;;;;;;2.98;78.44;99743.81;254357;1104;104117;-67
2021/03/16 22:25:21;;;;;;;38.67;19.67;;;;;;;2.85;79.99;99742.84;254740;1104;115748;-68
2021/03/16 22:30:24;;;;;;;33.50;18.12;;;;;;;2.83;78.65;99747.47;254214;1104;116554;-67
2021/03/16 22:35:31;;;;;;;;;;;;;;;2.76;79.87;99750.02;254319;1104;115505;-67
2021/03/16 22:40:33;;;;;;;26.93;17.12;;;;;;;2.68;80.13;99755.40;255011;1104;103371;-66
2021/03/16 22:45:37;;;;;;;30.68;16.07;;;;;;;2.65;79.71;99750.50;253176;1105;116021;-65
2021/03/16 22:50:41;;;;;;;31.02;15.78;;;;;;;2.64;80.71;99757.58;252806;1105;115917;-66
2021/03/16 22:55:50;;;;;;;30.57;18.23;;;;;;;2.58;81.07;99762.75;251765;1105;115811;-65
2021/03/16 23:00:56;;;;;;;27.07;18.98;;;;;;;2.51;81.63;99757.39;252186;1105;115517;-66
2021/03/16 23:06:00;;;;;;;34.90;17.37;;;;;;;2.45;81.07;99755.48;252920;1105;117456;-67
2021/03/16 23:11:04;;;;;;;35.00;18.67;;;;;;;2.39;80.75;99768.56;253503;1104;116569;-66